FW1341 Weather Reports


Display with metric or nautical units.
time (UTC)temp
F
wind
direction
speed
MPH
gust
MPH
rain 1hr
in
rain 24hr
in
rain mn
in
humidity
%
barometer
mb
20200408214345 76 304 5.0 14.0 0.00 0.06 0.05 43 998.7
20200408213845 76 291 6.0 18.0 0.00 0.06 0.05 44 998.7
20200408213344 76 308 5.0 18.0 0.00 0.06 0.05 44 998.8
20200408212843 76 4 6.0 16.0 0.00 0.06 0.05 46 998.8
20200408212345 76 352 6.0 16.0 0.00 0.06 0.05 46 998.7
20200408211839 77 333 6.0 15.0 0.00 0.06 0.05 45 998.7
20200408211341 77 353 8.0 15.0 0.00 0.06 0.05 46 998.5
20200408210841 77 333 7.0 15.0 0.00 0.06 0.05 46 998.6
20200408210339 77 27 7.0 16.0 0.00 0.06 0.05 45 998.6
20200408205841 78 330 8.0 16.0 0.00 0.06 0.05 44 998.5
20200408205341 78 332 8.0 16.0 0.00 0.06 0.05 44 998.7
20200408204836 78 300 8.0 17.0 0.00 0.06 0.05 40 998.7
20200408204337 78 335 7.0 18.0 0.00 0.06 0.05 39 998.6
20200408203837 79 248 7.0 18.0 0.00 0.06 0.05 42 998.4
20200408203335 78 283 8.0 20.0 0.00 0.06 0.05 42 998.5
20200408202835 78 255 6.0 20.0 0.00 0.06 0.05 43 998.5
20200408202337 79 218 5.0 11.0 0.00 0.06 0.05 45 998.4
20200408201831 78 298 5.0 16.0 0.00 0.06 0.05 44 998.4
20200408201332 78 329 6.0 16.0 0.00 0.06 0.05 46 998.4
20200408200833 78 287 7.0 20.0 0.00 0.07 0.05 46 998.3
20200408200332 78 312 6.0 20.0 0.00 0.08 0.05 45 998.3
20200408195831 78 315 5.0 13.0 0.00 0.10 0.05 45 998.1
20200408195332 78 298 4.0 12.0 0.00 0.12 0.05 47 998.3
20200408194832 77 250 4.0 12.0 0.00 0.15 0.05 50 998.2
20200408194333 77 335 5.0 16.0 0.00 0.16 0.05 49 998.2
20200408193833 77 324 7.0 16.0 0.00 0.17 0.05 49 998.1
20200408193331 77 342 7.0 15.0 0.00 0.19 0.05 48 998.3
20200408192832 78 354 5.0 12.0 0.00 0.21 0.05 48 998.3
20200408192325 77 26 5.0 11.0 0.00 0.23 0.05 49 998.3
20200408191827 77 345 5.0 13.0 0.00 0.23 0.05 48 998.4
20200408191326 77 340 4.0 13.0 0.00 0.23 0.05 49 998.5
20200408190826 77 338 6.0 16.0 0.00 0.23 0.05 49 998.5
20200408190324 77 352 7.0 16.0 0.00 0.23 0.05 48 998.6
20200408185824 77 314 6.0 15.0 0.00 0.23 0.05 48 998.6
20200408185320 78 300 6.0 15.0 0.00 0.23 0.05 47 998.6
20200408184820 77 224 7.0 14.0 0.00 0.23 0.05 47 998.4
20200408184319 77 39 8.0 15.0 0.00 0.23 0.05 48 998.6
20200408183819 76 332 7.0 15.0 0.00 0.23 0.05 49 998.7
20200408183320 77 284 7.0 14.0 0.00 0.23 0.05 49 998.7
20200408182821 77 318 7.0 14.0 0.00 0.23 0.05 49 998.7
20200408182321 77 345 6.0 13.0 0.00 0.23 0.05 48 998.8
20200408181815 77 24 5.0 12.0 0.00 0.23 0.05 48 998.9
20200408181315 78 303 4.0 12.0 0.00 0.23 0.05 48 998.8
20200408180815 77 8 4.0 11.0 0.00 0.23 0.05 48 998.9
20200408180315 77 293 5.0 10.0 0.00 0.23 0.05 48 999.0
20200408175816 76 330 6.0 16.0 0.00 0.23 0.05 50 999.0
20200408175315 76 309 7.0 16.0 0.00 0.23 0.05 49 999.0
20200408174815 76 309 7.0 21.0 0.00 0.23 0.05 49 999.1
20200408174311 76 208 6.0 21.0 0.00 0.23 0.05 50 999.1
20200408173811 77 320 2.0 9.0 0.00 0.23 0.05 50 999.1
20200408173311 76 294 3.0 12.0 0.00 0.23 0.05 51 999.0
20200408172812 75 330 4.0 12.0 0.00 0.23 0.05 52 999.1
20200408172313 75 334 4.0 11.0 0.00 0.23 0.05 52 999.2
20200408171813 76 323 4.0 11.0 0.00 0.23 0.05 52 999.3
20200408171312 75 315 7.0 18.0 0.00 0.23 0.05 53 999.2
20200408170807 74 314 9.0 20.0 0.00 0.23 0.05 53 999.1
20200408170305 75 32 8.0 20.0 0.00 0.23 0.05 53 999.0
20200408165805 74 332 5.0 20.0 0.00 0.23 0.05 53 998.9
20200408165305 74 302 5.0 15.0 0.00 0.23 0.05 55 999.1
20200408164805 74 20 7.0 15.0 0.00 0.23 0.05 55 999.0
20200408164307 74 311 7.0 15.0 0.00 0.23 0.05 54 999.1
20200408163808 74 359 7.0 15.0 0.00 0.23 0.05 54 999.1
20200408163301 74 300 5.0 15.0 0.00 0.23 0.05 54 999.1
20200408162801 74 29 5.0 15.0 0.00 0.23 0.05 55 999.1
20200408162259 73 298 7.0 17.0 0.00 0.23 0.05 55 999.1
20200408161759 73 43 6.0 17.0 0.00 0.23 0.05 56 999.2
20200408161259 73 326 5.0 14.0 0.00 0.23 0.05 56 999.2
20200408160801 73 341 5.0 14.0 0.00 0.23 0.05 56 999.3
20200408160300 73 293 4.0 10.0 0.00 0.23 0.05 57 999.2
20200408155757 72 323 3.0 10.0 0.00 0.23 0.05 58 999.4
20200408155258 72 288 3.0 10.0 0.00 0.23 0.05 58 999.4
20200408154758 71 307 3.0 12.0 0.00 0.23 0.05 60 999.5
20200408154258 71 308 4.0 12.0 0.00 0.23 0.05 60 999.6
20200408153758 71 321 4.0 11.0 0.00 0.23 0.05 61 999.7
20200408153256 71 291 4.0 9.0 0.00 0.23 0.05 61 999.7
20200408152756 70 288 3.0 12.0 0.00 0.23 0.05 62 999.7
20200408152253 70 250 2.0 12.0 0.00 0.23 0.05 62 999.8
20200408151751 69 198 2.0 5.0 0.00 0.23 0.05 66 999.8
20200408151251 68 183 3.0 8.0 0.00 0.23 0.05 68 999.7
20200408150751 68 297 2.0 8.0 0.00 0.23 0.05 68 999.7
20200408150252 67 197 2.0 8.0 0.00 0.23 0.05 70 999.7
20200408145753 66 165 3.0 8.0 0.00 0.23 0.05 71 999.7
20200408145252 66 170 3.0 9.0 0.00 0.23 0.05 72 999.6
20200408144746 65 249 4.0 9.0 0.00 0.23 0.05 75 999.7
20200408144246 64 221 3.0 9.0 0.00 0.23 0.05 75 999.8
20200408143745 64 231 3.0 8.0 0.00 0.23 0.05 76 999.8
20200408143258 64 200 4.0 8.0 0.00 0.23 0.05 76 999.8
20200408142745 64 200 4.0 8.0 0.00 0.23 0.05 77 999.8
20200408142246 63 229 3.0 11.0 0.00 0.23 0.05 77 999.7
20200408141746 63 107 3.0 12.0 0.00 0.23 0.05 77 999.7
20200408141239 63 203 4.0 12.0 0.00 0.23 0.05 78 999.7
20200408140739 63 231 3.0 9.0 0.00 0.23 0.05 78 999.6
20200408140240 63 236 2.0 8.0 0.00 0.23 0.05 78 999.7
20200408135739 62 139 2.0 7.0 0.00 0.23 0.05 79 999.6
20200408134738 62 204 2.0 9.0 0.00 0.23 0.05 80 999.7
20200408134239 62 126 1.0 6.0 0.00 0.23 0.05 80 999.7
20200408133735 62 211 2.0 7.0 0.00 0.23 0.05 81 999.6
20200408133235 62 145 2.0 7.0 0.00 0.23 0.05 81 999.6
20200408132736 61 264 2.0 7.0 0.00 0.23 0.05 81 999.6
20200408132237 61 183 3.0 8.0 0.00 0.23 0.05 82 999.6
20200408131734 61 243 4.0 10.0 0.00 0.23 0.05 82 999.7
20200408131234 61 228 3.0 10.0 0.00 0.23 0.05 82 999.6
20200408130734 61 307 1.0 7.0 0.00 0.23 0.05 82 999.5
20200408130229 61 193 1.0 5.0 0.00 0.23 0.05 83 999.4
20200408125727 61 231 1.0 5.0 0.00 0.23 0.05 82 999.4
20200408125227 61 220 0.0 5.0 0.00 0.23 0.05 82 999.3
20200408124727 61 255 1.0 3.0 0.00 0.23 0.05 83 999.2
20200408124228 60 253 1.0 4.0 0.00 0.23 0.05 83 999.1
20200408123728 60 242 0.0 4.0 0.00 0.23 0.05 83 999.2
20200408123228 60 283 0.0 3.0 0.00 0.23 0.05 84 999.2
20200408122722 60 253 0.0 5.0 0.00 0.23 0.05 84 999.1
20200408122219 60 291 1.0 5.0 0.01 0.23 0.05 84 999.1
20200408121719 60 224 1.0 6.0 0.01 0.23 0.05 84 999.1
20200408121217 60 203 1.0 6.0 0.01 0.23 0.05 85 999.0
20200408120716 60 278 0.0 3.0 0.01 0.23 0.05 85 999.2
20200408120209 60 319 1.0 3.0 0.01 0.23 0.05 85 999.2
20200408115709 59 248 1.0 5.0 0.01 0.23 0.05 85 998.8
20200408115209 59 235 1.0 9.0 0.01 0.23 0.05 86 999.0
20200408114710 59 222 2.0 9.0 0.01 0.23 0.05 86 998.7
20200408114208 59 200 1.0 4.0 0.01 0.23 0.05 87 998.1
20200408113708 58 221 1.0 4.0 0.01 0.23 0.05 87 998.1
20200408113201 59 224 2.0 5.0 0.01 0.23 0.05 87 997.9
20200408112701 59 193 2.0 6.0 0.01 0.23 0.05 88 998.3
20200408112202 59 174 1.0 6.0 0.00 0.22 0.04 88 998.6
20200408111702 59 188 1.0 5.0 0.00 0.22 0.04 88 999.1
20200408111202 59 177 1.0 5.0 0.00 0.22 0.04 88 999.2
20200408110703 59 222 2.0 8.0 0.01 0.22 0.04 88 999.3
20200408110202 59 198 2.0 8.0 0.01 0.22 0.04 88 999.4
20200408105658 59 207 2.0 7.0 0.01 0.22 0.04 88 999.5
20200408105158 59 200 1.0 7.0 0.02 0.22 0.04 88 999.5
20200408104658 58 228 1.0 7.0 0.02 0.22 0.04 88 999.4
20200408104156 58 257 0.0 2.0 0.02 0.22 0.04 88 999.3
20200408103656 58 197 0.0 1.0 0.02 0.22 0.04 88 999.3
20200408103149 58 179 0.0 2.0 0.02 0.22 0.04 88 999.2
20200408102647 58 235 1.0 3.0 0.02 0.22 0.04 88 999.1
20200408102146 58 195 1.0 3.0 0.02 0.22 0.04 88 998.9
20200408101645 59 211 1.0 3.0 0.02 0.22 0.04 88 999.1
20200408101144 59 211 0.0 3.0 0.02 0.22 0.04 88 999.1
20200408100642 59 203 1.0 7.0 0.01 0.21 0.04 87 999.3
20200408100139 59 176 2.0 7.0 0.01 0.21 0.03 87 999.3
20200408095640 59 241 1.0 5.0 0.02 0.21 0.03 87 999.5
20200408095140 59 238 1.0 5.0 0.01 0.20 0.02 86 999.6
20200408094639 59 233 1.0 5.0 0.01 0.20 0.02 86 999.2
20200408094138 59 221 0.0 3.0 0.01 0.20 0.02 87 999.1
20200408093630 58 248 0.0 2.0 0.01 0.20 0.02 87 999.4
20200408093132 58 231 0.0 4.0 0.02 0.20 0.02 87 999.4
20200408092631 59 311 1.0 5.0 0.02 0.20 0.02 87 999.5
20200408092132 59 252 1.0 5.0 0.02 0.20 0.02 87 999.3
20200408091134 59 35 0.0 3.0 0.02 0.20 0.02 86 999.2
20200408090626 59 225 1.0 5.0 0.02 0.20 0.02 85 999.5
20200408090124 60 300 2.0 9.0 0.02 0.20 0.02 85 999.6
20200408085624 60 40 3.0 9.0 0.01 0.19 0.01 85 999.7
20200408085126 60 298 3.0 13.0 0.01 0.19 0.01 86 1000.0
20200408084626 60 326 5.0 13.0 0.01 0.19 0.01 87 999.6
20200408084125 59 331 6.0 15.0 0.01 0.19 0.01 88 999.7
20200408083622 59 316 7.0 16.0 0.01 0.19 0.01 91 1000.0
20200408083123 59 326 7.0 19.0 0.00 0.18 0.00 93 1000.3
20200408082622 58 323 4.0 19.0 0.00 0.18 0.00 94 1000.4
20200408082123 58 227 3.0 7.0 0.00 0.18 0.00 94 997.4
20200408081621 58 248 2.0 6.0 0.00 0.18 0.00 93 997.3
20200408081120 58 184 1.0 5.0 0.00 0.18 0.00 93 997.4
20200408080616 58 204 1.0 4.0 0.00 0.18 0.00 93 997.3
20200408080115 58 156 1.0 4.0 0.00 0.18 0.00 93 997.5
20200408075616 58 189 1.0 4.0 0.00 0.18 0.00 93 997.5
20200408075116 58 221 0.0 2.0 0.00 0.18 0.00 93 997.6
20200408074614 58 217 0.0 2.0 0.00 0.18 0.00 93 997.7
20200408074115 58 231 0.0 4.0 0.00 0.18 0.00 93 997.8
20200408073607 58 203 0.0 4.0 0.00 0.18 0.00 93 997.8
20200408073105 58 229 0.0 2.0 0.00 0.18 0.00 93 997.8
20200408072604 58 200 1.0 5.0 0.00 0.18 0.00 94 997.9
20200408072103 58 194 1.0 5.0 0.00 0.18 0.00 94 998.1
20200408071603 58 224 1.0 4.0 0.00 0.18 0.00 93 998.2
20200408071054 58 211 1.0 4.0 0.00 0.18 0.00 93 998.2
20200408070556 58 207 0.0 4.0 0.00 0.18 0.00 93 998.2
20200408070055 58 235 0.0 4.0 0.00 0.18 0.00 93 998.1
20200408065556 58 208 0.0 3.0 0.00 0.18 0.00 93 998.1
20200408065056 58 229 1.0 3.0 0.00 0.18 0.00 93 998.2
20200408064556 58 162 1.0 3.0 0.00 0.18 0.00 93 998.3
20200408064050 58 158 1.0 4.0 0.00 0.18 0.00 93 998.6
20200408063547 58 200 1.0 4.0 0.00 0.18 0.00 93 998.5
20200408063046 58 169 0.0 3.0 0.00 0.18 0.00 93 998.8
20200408062544 58 191 1.0 4.0 0.00 0.18 0.00 93 998.8
20200408062044 58 156 1.0 4.0 0.00 0.18 0.00 93 998.9
20200408061538 58 193 1.0 4.0 0.00 0.18 0.00 93 999.0
20200408061036 58 190 1.0 4.0 0.00 0.18 0.00 93 999.2
20200408060540 58 236 1.0 5.0 0.00 0.18 0.00 93 999.3
20200408060039 59 207 1.0 5.0 0.00 0.18 0.00 92 999.5
20200408055539 59 160 1.0 4.0 0.00 0.18 0.00 92 999.6
20200408055038 59 192 1.0 6.0 0.00 0.18 0.00 92 999.5
20200408054533 59 176 2.0 6.0 0.00 0.18 0.00 93 999.7
20200408054035 59 205 2.0 7.0 0.00 0.18 0.00 93 999.9
20200408053532 59 238 1.0 7.0 0.00 0.18 0.00 92 999.9
20200408053032 59 204 1.0 7.0 0.00 0.18 0.00 92 1000.0
20200408052532 59 217 1.0 7.0 0.00 0.18 0.00 92 1000.1
20200408052033 59 212 1.0 5.0 0.00 0.18 0.00 92 1000.2
20200408051527 59 210 2.0 7.0 0.00 0.18 0.00 91 1000.3
20200408051028 59 183 3.0 8.0 0.00 0.18 0.00 91 1000.5
20200408050526 59 207 2.0 8.0 0.00 0.18 0.00 91 1000.5
20200408050026 59 203 1.0 7.0 0.00 0.18 0.00 91 1000.7
20200408045526 59 126 2.0 7.0 0.00 0.18 0.00 91 1000.9
20200408045026 59 213 1.0 6.0 0.00 0.18 0.00 91 1001.0
20200408044524 59 297 2.0 7.0 0.00 0.18 0.00 91 1001.1
20200408044020 59 201 2.0 7.0 0.00 0.18 0.00 91 1001.1
20200408043522 59 208 1.0 7.0 0.00 0.18 0.00 91 1001.4
20200408043022 60 174 1.0 7.0 0.00 0.18 0.00 91 1001.4
20200408042519 60 222 1.0 5.0 0.00 0.18 0.00 91 1001.5
20200408042019 60 196 2.0 6.0 0.00 0.18 0.00 91 1001.7
20200408041515 60 179 2.0 6.0 0.00 0.18 0.00 91 1001.8
20200408041014 60 219 1.0 6.0 0.00 0.18 0.00 91 1001.9
20200408040513 60 239 0.0 4.0 0.01 0.18 0.00 91 1001.9
20200408040014 60 153 1.0 4.0 0.01 0.18 0.00 91 1002.0
20200408035513 60 225 1.0 4.0 0.01 0.18 0.18 91 1001.9
20200408035014 60 221 1.0 6.0 0.01 0.18 0.18 91 1002.0
20200408034510 60 198 1.0 6.0 0.01 0.18 0.18 91 1002.1
20200408034009 60 172 1.0 4.0 0.01 0.18 0.18 91 1002.2
20200408033511 60 214 2.0 7.0 0.01 0.18 0.18 91 1002.3
20200408033009 60 198 2.0 8.0 0.01 0.18 0.18 91 1002.3
20200408032507 60 201 2.0 8.0 0.01 0.18 0.18 91 1002.5
20200408032007 61 181 2.0 8.0 0.01 0.18 0.18 91 1002.6
20200408031501 61 159 2.0 8.0 0.01 0.18 0.18 91 1002.7
20200408031001 61 212 2.0 6.0 0.01 0.18 0.18 91 1002.9
20200408030502 61 239 3.0 9.0 0.00 0.17 0.17 91 1003.2
20200408030001 61 148 3.0 9.0 0.00 0.17 0.17 91 1002.8
20200408025501 61 236 3.0 7.0 0.00 0.17 0.17 91 1003.1
20200408025000 61 200 3.0 7.0 0.00 0.17 0.17 90 1003.1
20200408024456 61 186 2.0 6.0 0.00 0.17 0.17 90 1003.3
20200408023956 61 211 2.0 6.0 0.00 0.17 0.17 90 1003.4
20200408023457 61 198 2.0 6.0 0.00 0.17 0.17 90 1003.5
20200408022956 61 236 1.0 6.0 0.00 0.17 0.17 90 1003.6
20200408022457 62 129 1.0 6.0 0.00 0.17 0.17 90 1003.6
20200408021957 62 136 2.0 6.0 0.00 0.17 0.17 90 1003.6
20200408021458 62 235 2.0 6.0 0.00 0.17 0.17 90 1003.7
20200408020951 62 156 2.0 7.0 0.00 0.17 0.17 90 1003.9
20200408020450 62 207 3.0 7.0 0.00 0.17 0.17 89 1003.9
20200408015951 62 231 3.0 7.0 0.00 0.17 0.17 89 1004.0
20200408015451 62 215 2.0 6.0 0.00 0.17 0.17 89 1004.2
20200408014951 62 224 2.0 8.0 0.00 0.17 0.17 88 1004.2
20200408014451 62 163 2.0 8.0 0.00 0.17 0.17 88 1004.2
20200408013945 62 231 1.0 5.0 0.00 0.17 0.17 88 1004.3
20200408013445 62 201 0.0 3.0 0.00 0.17 0.17 87 1004.4
20200408012945 62 200 0.0 4.0 0.00 0.17 0.17 87 1004.4
20200408012445 62 207 1.0 6.0 0.00 0.17 0.17 87 1004.5
20200408011945 62 211 1.0 6.0 0.00 0.17 0.17 87 1004.6
20200408011445 62 195 0.0 4.0 0.00 0.17 0.17 86 1004.5
20200408010941 62 132 0.0 4.0 0.00 0.17 0.17 86 1004.4
20200408010441 62 149 0.0 3.0 0.00 0.17 0.17 86 1004.5
20200408005939 62 170 1.0 4.0 0.00 0.17 0.17 86 1004.5
20200408005441 62 107 1.0 4.0 0.00 0.17 0.17 85 1004.4
20200408004939 63 190 0.0 0.0 0.00 0.17 0.17 84 1004.3
20200408004440 63 181 0.0 0.0 0.00 0.17 0.17 84 1004.4
20200408003935 63 194 0.0 3.0 0.00 0.17 0.17 84 1004.5
20200408003435 63 136 1.0 5.0 0.00 0.17 0.17 84 1004.6
20200408002933 63 166 1.0 7.0 0.00 0.17 0.17 84 1004.6
20200408002433 63 157 2.0 7.0 0.00 0.17 0.17 84 1004.6
20200408001933 63 169 1.0 6.0 0.00 0.17 0.17 84 1004.6
20200408001432 63 181 1.0 5.0 0.00 0.17 0.17 83 1004.9
20200408000929 63 211 1.0 6.0 0.00 0.17 0.17 83 1004.8
20200408000429 63 218 2.0 7.0 0.00 0.17 0.17 83 1004.8
20200407235927 63 240 2.0 7.0 0.00 0.17 0.17 83 1004.9
20200407235427 63 183 1.0 6.0 0.00 0.17 0.17 82 1004.8
20200407234927 63 248 1.0 4.0 0.00 0.17 0.17 82 1005.0
20200407234429 64 210 1.0 4.0 0.00 0.17 0.17 82 1005.2
20200407233919 64 210 1.0 4.0 0.00 0.17 0.17 81 1005.2
20200407233419 64 158 1.0 4.0 0.00 0.17 0.17 80 1005.2
20200407232917 64 205 0.0 3.0 0.00 0.17 0.17 80 1005.3
20200407232415 64 210 1.0 4.0 0.00 0.17 0.17 80 1005.3
20200407231916 64 210 0.0 4.0 0.00 0.17 0.17 80 1005.3
20200407231409 64 251 1.0 4.0 0.00 0.17 0.17 80 1005.2
20200407230909 64 235 1.0 4.0 0.00 0.17 0.17 80 1005.0
20200407230410 64 181 0.0 4.0 0.00 0.17 0.17 80 1005.1
20200407225911 64 200 1.0 4.0 0.00 0.17 0.17 80 1005.1
20200407225409 64 180 1.0 4.0 0.00 0.17 0.17 79 1005.1
20200407224911 65 191 1.0 4.0 0.00 0.17 0.17 78 1005.3
20200407224401 65 221 1.0 4.0 0.00 0.17 0.17 77 1005.3
20200407223903 66 190 1.0 4.0 0.00 0.17 0.17 77 1005.2
20200407223403 66 203 1.0 4.0 0.00 0.17 0.17 77 1005.3
20200407222903 65 162 1.0 4.0 0.00 0.17 0.17 77 1005.3
20200407222402 65 256 2.0 6.0 0.00 0.17 0.17 77 1005.2
20200407221903 65 156 3.0 7.0 0.00 0.17 0.17 76 1005.1
20200407221359 66 208 3.0 7.0 0.00 0.17 0.17 75 1005.2
20200407220858 66 240 2.0 7.0 0.00 0.17 0.17 74 1005.3
20200407220358 66 219 2.0 5.0 0.00 0.17 0.17 74 1005.2
20200407215856 66 198 2.0 6.0 0.00 0.17 0.17 75 1005.3
20200407215356 66 166 1.0 6.0 0.00 0.17 0.17 75 1005.3
20200407214856 66 157 0.0 3.0 0.00 0.17 0.17 75 1005.3